sensor_id;sensor_type;location;lat;lon;timestamp;P1;durP1;ratioP1;P2;durP2;ratioP2
66189;SDS011;52992;52.084;5.412;2023-02-22T00:01:33;35.17;;;13.43;;
66189;SDS011;52992;52.084;5.412;2023-02-22T00:04:04;27.77;;;12.53;;
66189;SDS011;52992;52.084;5.412;2023-02-22T00:06:32;29.30;;;12.57;;
66189;SDS011;52992;52.084;5.412;2023-02-22T00:08:59;33.83;;;12.50;;
66189;SDS011;52992;52.084;5.412;2023-02-22T00:11:27;32.53;;;12.30;;
66189;SDS011;52992;52.084;5.412;2023-02-22T00:13:56;31.60;;;12.97;;
66189;SDS011;52992;52.084;5.412;2023-02-22T00:16:23;31.03;;;12.20;;
66189;SDS011;52992;52.084;5.412;2023-02-22T00:18:51;29.93;;;11.57;;
66189;SDS011;52992;52.084;5.412;2023-02-22T00:21:18;31.47;;;12.43;;
66189;SDS011;52992;52.084;5.412;2023-02-22T00:23:46;32.70;;;13.87;;
66189;SDS011;52992;52.084;5.412;2023-02-22T00:26:15;24.33;;;11.23;;
66189;SDS011;52992;52.084;5.412;2023-02-22T00:28:49;26.27;;;11.13;;
66189;SDS011;52992;52.084;5.412;2023-02-22T00:31:17;31.07;;;11.83;;
66189;SDS011;52992;52.084;5.412;2023-02-22T00:33:47;27.97;;;11.33;;
66189;SDS011;52992;52.084;5.412;2023-02-22T00:36:15;30.43;;;12.10;;
66189;SDS011;52992;52.084;5.412;2023-02-22T00:38:42;29.03;;;11.43;;
66189;SDS011;52992;52.084;5.412;2023-02-22T00:41:09;26.47;;;11.37;;
66189;SDS011;52992;52.084;5.412;2023-02-22T00:43:37;31.20;;;11.20;;
66189;SDS011;52992;52.084;5.412;2023-02-22T00:46:04;27.33;;;11.70;;
66189;SDS011;52992;52.084;5.412;2023-02-22T00:48:30;28.17;;;11.87;;
66189;SDS011;52992;52.084;5.412;2023-02-22T00:50:57;26.47;;;11.23;;
66189;SDS011;52992;52.084;5.412;2023-02-22T00:53:24;24.03;;;11.17;;
66189;SDS011;52992;52.084;5.412;2023-02-22T00:55:52;27.87;;;11.17;;
66189;SDS011;52992;52.084;5.412;2023-02-22T00:58:19;27.97;;;11.07;;
66189;SDS011;52992;52.084;5.412;2023-02-22T01:00:46;25.90;;;11.43;;
66189;SDS011;52992;52.084;5.412;2023-02-22T01:03:15;24.07;;;10.80;;
66189;SDS011;52992;52.084;5.412;2023-02-22T01:05:43;25.30;;;10.37;;
66189;SDS011;52992;52.084;5.412;2023-02-22T01:08:12;25.37;;;10.87;;
66189;SDS011;52992;52.084;5.412;2023-02-22T01:10:40;22.73;;;9.67;;
66189;SDS011;52992;52.084;5.412;2023-02-22T01:13:08;24.20;;;10.23;;
66189;SDS011;52992;52.084;5.412;2023-02-22T01:15:38;25.07;;;11.10;;
66189;SDS011;52992;52.084;5.412;2023-02-22T01:18:07;24.77;;;10.73;;
66189;SDS011;52992;52.084;5.412;2023-02-22T01:20:34;24.93;;;10.27;;
66189;SDS011;52992;52.084;5.412;2023-02-22T01:23:01;26.60;;;11.37;;
66189;SDS011;52992;52.084;5.412;2023-02-22T01:25:32;24.90;;;11.23;;
66189;SDS011;52992;52.084;5.412;2023-02-22T01:28:00;23.93;;;10.13;;
66189;SDS011;52992;52.084;5.412;2023-02-22T01:30:29;23.13;;;10.23;;
66189;SDS011;52992;52.084;5.412;2023-02-22T01:33:01;22.93;;;10.40;;
66189;SDS011;52992;52.084;5.412;2023-02-22T01:35:30;25.20;;;11.00;;
66189;SDS011;52992;52.084;5.412;2023-02-22T01:37:59;23.53;;;10.90;;
66189;SDS011;52992;52.084;5.412;2023-02-22T01:40:28;23.10;;;10.30;;
66189;SDS011;52992;52.084;5.412;2023-02-22T01:42:58;29.33;;;11.17;;
66189;SDS011;52992;52.084;5.412;2023-02-22T01:48:01;27.33;;;11.53;;
66189;SDS011;52992;52.084;5.412;2023-02-22T01:50:32;25.80;;;11.67;;
66189;SDS011;52992;52.084;5.412;2023-02-22T01:53:04;26.63;;;11.53;;
66189;SDS011;52992;52.084;5.412;2023-02-22T01:55:33;29.30;;;12.03;;
66189;SDS011;52992;52.084;5.412;2023-02-22T01:58:01;25.83;;;11.67;;
66189;SDS011;52992;52.084;5.412;2023-02-22T02:00:30;25.57;;;11.63;;
66189;SDS011;52992;52.084;5.412;2023-02-22T02:02:59;27.00;;;12.23;;
66189;SDS011;52992;52.084;5.412;2023-02-22T02:05:31;27.63;;;11.93;;
66189;SDS011;52992;52.084;5.412;2023-02-22T02:08:02;29.13;;;12.27;;
66189;SDS011;52992;52.084;5.412;2023-02-22T02:10:40;23.23;;;10.97;;
66189;SDS011;52992;52.084;5.412;2023-02-22T02:13:09;24.23;;;10.80;;
66189;SDS011;52992;52.084;5.412;2023-02-22T02:15:36;27.90;;;12.40;;
66189;SDS011;52992;52.084;5.412;2023-02-22T02:18:04;25.80;;;12.17;;
66189;SDS011;52992;52.084;5.412;2023-02-22T02:21:19;28.70;;;12.60;;
66189;SDS011;52992;52.084;5.412;2023-02-22T02:24:05;27.77;;;12.10;;
66189;SDS011;52992;52.084;5.412;2023-02-22T02:26:44;33.27;;;13.40;;
66189;SDS011;52992;52.084;5.412;2023-02-22T02:32:39;30.73;;;13.40;;
66189;SDS011;52992;52.084;5.412;2023-02-22T02:38:18;34.27;;;13.90;;
66189;SDS011;52992;52.084;5.412;2023-02-22T02:41:05;27.77;;;12.77;;
66189;SDS011;52992;52.084;5.412;2023-02-22T02:43:41;29.93;;;12.73;;
66189;SDS011;52992;52.084;5.412;2023-02-22T02:49:11;30.97;;;12.17;;
66189;SDS011;52992;52.084;5.412;2023-02-22T02:51:51;32.80;;;12.97;;
66189;SDS011;52992;52.084;5.412;2023-02-22T02:54:20;32.70;;;13.20;;
66189;SDS011;52992;52.084;5.412;2023-02-22T02:56:50;29.30;;;12.33;;
66189;SDS011;52992;52.084;5.412;2023-02-22T02:59:33;35.73;;;14.30;;
66189;SDS011;52992;52.084;5.412;2023-02-22T03:08:12;32.53;;;14.73;;
66189;SDS011;52992;52.084;5.412;2023-02-22T03:22:01;35.50;;;14.20;;
66189;SDS011;52992;52.084;5.412;2023-02-22T03:24:47;35.93;;;13.90;;
66189;SDS011;52992;52.084;5.412;2023-02-22T03:27:37;39.97;;;14.90;;
66189;SDS011;52992;52.084;5.412;2023-02-22T03:30:11;35.20;;;13.33;;
66189;SDS011;52992;52.084;5.412;2023-02-22T03:32:54;38.77;;;14.80;;
66189;SDS011;52992;52.084;5.412;2023-02-22T03:35:28;35.97;;;14.23;;
66189;SDS011;52992;52.084;5.412;2023-02-22T03:38:01;41.53;;;14.17;;
66189;SDS011;52992;52.084;5.412;2023-02-22T03:40:34;34.30;;;14.10;;
66189;SDS011;52992;52.084;5.412;2023-02-22T03:43:06;34.27;;;13.20;;
66189;SDS011;52992;52.084;5.412;2023-02-22T03:45:42;31.37;;;13.53;;
66189;SDS011;52992;52.084;5.412;2023-02-22T03:48:20;38.60;;;14.03;;
66189;SDS011;52992;52.084;5.412;2023-02-22T03:51:03;40.77;;;16.37;;
66189;SDS011;52992;52.084;5.412;2023-02-22T03:53:32;40.20;;;14.20;;
66189;SDS011;52992;52.084;5.412;2023-02-22T03:56:04;39.33;;;15.43;;
66189;SDS011;52992;52.084;5.412;2023-02-22T03:58:36;39.33;;;14.97;;
66189;SDS011;52992;52.084;5.412;2023-02-22T04:01:05;39.77;;;16.33;;
66189;SDS011;52992;52.084;5.412;2023-02-22T04:03:32;43.90;;;15.87;;
66189;SDS011;52992;52.084;5.412;2023-02-22T04:06:00;38.70;;;14.87;;
66189;SDS011;52992;52.084;5.412;2023-02-22T04:08:27;41.50;;;16.13;;
66189;SDS011;52992;52.084;5.412;2023-02-22T04:10:55;42.00;;;14.57;;
66189;SDS011;52992;52.084;5.412;2023-02-22T04:13:25;39.60;;;14.63;;
66189;SDS011;52992;52.084;5.412;2023-02-22T04:15:52;43.83;;;14.43;;
66189;SDS011;52992;52.084;5.412;2023-02-22T04:18:19;40.97;;;15.07;;
66189;SDS011;52992;52.084;5.412;2023-02-22T04:20:47;40.37;;;14.83;;
66189;SDS011;52992;52.084;5.412;2023-02-22T04:23:24;42.97;;;16.30;;
66189;SDS011;52992;52.084;5.412;2023-02-22T04:25:52;35.13;;;13.87;;
66189;SDS011;52992;52.084;5.412;2023-02-22T04:28:21;39.83;;;15.70;;
66189;SDS011;52992;52.084;5.412;2023-02-22T04:30:53;40.80;;;14.83;;
66189;SDS011;52992;52.084;5.412;2023-02-22T04:33:20;38.23;;;15.17;;
66189;SDS011;52992;52.084;5.412;2023-02-22T04:35:47;40.07;;;15.47;;
66189;SDS011;52992;52.084;5.412;2023-02-22T04:38:14;35.20;;;15.07;;
66189;SDS011;52992;52.084;5.412;2023-02-22T04:40:40;39.43;;;15.13;;
66189;SDS011;52992;52.084;5.412;2023-02-22T04:43:07;39.97;;;14.40;;
66189;SDS011;52992;52.084;5.412;2023-02-22T04:45:34;36.67;;;15.00;;
66189;SDS011;52992;52.084;5.412;2023-02-22T04:48:03;43.63;;;14.10;;
66189;SDS011;52992;52.084;5.412;2023-02-22T04:50:30;49.77;;;16.17;;
66189;SDS011;52992;52.084;5.412;2023-02-22T04:52:57;40.33;;;14.50;;
66189;SDS011;52992;52.084;5.412;2023-02-22T04:55:24;38.77;;;15.20;;
66189;SDS011;52992;52.084;5.412;2023-02-22T04:57:50;42.90;;;14.73;;
66189;SDS011;52992;52.084;5.412;2023-02-22T05:00:18;35.07;;;14.77;;
66189;SDS011;52992;52.084;5.412;2023-02-22T05:02:47;45.20;;;15.63;;
66189;SDS011;52992;52.084;5.412;2023-02-22T05:05:18;45.70;;;15.83;;
66189;SDS011;52992;52.084;5.412;2023-02-22T05:07:47;38.67;;;14.50;;
66189;SDS011;52992;52.084;5.412;2023-02-22T05:10:14;47.87;;;15.87;;
66189;SDS011;52992;52.084;5.412;2023-02-22T05:12:42;37.73;;;14.80;;
66189;SDS011;52992;52.084;5.412;2023-02-22T05:15:09;43.23;;;14.47;;
66189;SDS011;52992;52.084;5.412;2023-02-22T05:17:40;39.33;;;14.20;;
66189;SDS011;52992;52.084;5.412;2023-02-22T05:20:08;41.47;;;15.40;;
66189;SDS011;52992;52.084;5.412;2023-02-22T05:22:44;43.23;;;15.23;;
66189;SDS011;52992;52.084;5.412;2023-02-22T05:25:11;46.97;;;15.90;;
66189;SDS011;52992;52.084;5.412;2023-02-22T05:27:38;42.53;;;15.60;;
66189;SDS011;52992;52.084;5.412;2023-02-22T05:30:05;46.83;;;15.90;;
66189;SDS011;52992;52.084;5.412;2023-02-22T05:32:34;41.87;;;16.80;;
66189;SDS011;52992;52.084;5.412;2023-02-22T05:35:01;53.00;;;16.57;;
66189;SDS011;52992;52.084;5.412;2023-02-22T05:37:27;51.43;;;17.97;;
66189;SDS011;52992;52.084;5.412;2023-02-22T05:39:54;48.17;;;17.40;;
66189;SDS011;52992;52.084;5.412;2023-02-22T05:42:21;41.50;;;16.40;;
66189;SDS011;52992;52.084;5.412;2023-02-22T05:44:48;51.17;;;17.57;;
66189;SDS011;52992;52.084;5.412;2023-02-22T05:47:15;46.47;;;17.80;;
66189;SDS011;52992;52.084;5.412;2023-02-22T05:49:42;49.83;;;18.00;;
66189;SDS011;52992;52.084;5.412;2023-02-22T05:52:08;54.43;;;18.47;;
66189;SDS011;52992;52.084;5.412;2023-02-22T05:54:35;52.97;;;17.37;;
66189;SDS011;52992;52.084;5.412;2023-02-22T05:57:02;51.30;;;16.53;;
66189;SDS011;52992;52.084;5.412;2023-02-22T05:59:29;66.60;;;19.33;;
66189;SDS011;52992;52.084;5.412;2023-02-22T06:01:55;49.03;;;16.97;;
66189;SDS011;52992;52.084;5.412;2023-02-22T06:04:22;53.90;;;18.30;;
66189;SDS011;52992;52.084;5.412;2023-02-22T06:06:49;56.90;;;19.67;;
66189;SDS011;52992;52.084;5.412;2023-02-22T06:09:16;55.13;;;18.07;;
66189;SDS011;52992;52.084;5.412;2023-02-22T06:11:43;47.80;;;18.53;;
66189;SDS011;52992;52.084;5.412;2023-02-22T06:14:10;49.80;;;17.10;;
66189;SDS011;52992;52.084;5.412;2023-02-22T06:16:37;51.00;;;17.33;;
66189;SDS011;52992;52.084;5.412;2023-02-22T06:19:03;47.23;;;16.80;;
66189;SDS011;52992;52.084;5.412;2023-02-22T06:21:30;54.47;;;18.73;;
66189;SDS011;52992;52.084;5.412;2023-02-22T06:23:57;57.10;;;17.00;;
66189;SDS011;52992;52.084;5.412;2023-02-22T06:26:24;55.53;;;17.43;;
66189;SDS011;52992;52.084;5.412;2023-02-22T06:28:50;52.07;;;18.13;;
66189;SDS011;52992;52.084;5.412;2023-02-22T06:31:17;60.03;;;18.47;;
66189;SDS011;52992;52.084;5.412;2023-02-22T06:33:45;57.90;;;19.23;;
66189;SDS011;52992;52.084;5.412;2023-02-22T06:36:12;56.70;;;18.70;;
66189;SDS011;52992;52.084;5.412;2023-02-22T06:38:38;55.77;;;19.33;;
66189;SDS011;52992;52.084;5.412;2023-02-22T06:41:05;54.20;;;18.00;;
66189;SDS011;52992;52.084;5.412;2023-02-22T06:43:34;59.90;;;17.73;;
66189;SDS011;52992;52.084;5.412;2023-02-22T06:46:01;48.33;;;16.93;;
66189;SDS011;52992;52.084;5.412;2023-02-22T06:48:28;49.57;;;17.17;;
66189;SDS011;52992;52.084;5.412;2023-02-22T06:50:55;51.13;;;16.70;;
66189;SDS011;52992;52.084;5.412;2023-02-22T06:53:21;50.13;;;17.30;;
66189;SDS011;52992;52.084;5.412;2023-02-22T06:55:48;51.17;;;17.80;;
66189;SDS011;52992;52.084;5.412;2023-02-22T06:58:18;48.17;;;17.50;;
66189;SDS011;52992;52.084;5.412;2023-02-22T07:00:45;51.73;;;17.43;;
66189;SDS011;52992;52.084;5.412;2023-02-22T07:03:12;45.23;;;16.93;;
66189;SDS011;52992;52.084;5.412;2023-02-22T07:05:39;47.87;;;16.40;;
66189;SDS011;52992;52.084;5.412;2023-02-22T07:08:06;49.87;;;17.33;;
66189;SDS011;52992;52.084;5.412;2023-02-22T07:10:33;51.13;;;17.53;;
66189;SDS011;52992;52.084;5.412;2023-02-22T07:13:02;50.37;;;15.40;;
66189;SDS011;52992;52.084;5.412;2023-02-22T07:15:30;51.07;;;16.33;;
66189;SDS011;52992;52.084;5.412;2023-02-22T07:17:58;48.83;;;16.80;;
66189;SDS011;52992;52.084;5.412;2023-02-22T07:20:25;47.23;;;16.70;;
66189;SDS011;52992;52.084;5.412;2023-02-22T07:22:54;58.50;;;16.93;;
66189;SDS011;52992;52.084;5.412;2023-02-22T07:25:21;56.63;;;19.03;;
66189;SDS011;52992;52.084;5.412;2023-02-22T07:27:48;52.07;;;17.90;;
66189;SDS011;52992;52.084;5.412;2023-02-22T07:30:21;58.00;;;18.67;;
66189;SDS011;52992;52.084;5.412;2023-02-22T07:32:56;51.33;;;17.87;;
66189;SDS011;52992;52.084;5.412;2023-02-22T07:35:28;48.17;;;16.63;;
66189;SDS011;52992;52.084;5.412;2023-02-22T07:38:02;48.20;;;17.20;;
66189;SDS011;52992;52.084;5.412;2023-02-22T07:40:31;51.87;;;18.53;;
66189;SDS011;52992;52.084;5.412;2023-02-22T07:43:11;55.40;;;17.73;;
66189;SDS011;52992;52.084;5.412;2023-02-22T07:45:41;62.83;;;19.00;;
66189;SDS011;52992;52.084;5.412;2023-02-22T07:48:09;54.83;;;18.63;;
66189;SDS011;52992;52.084;5.412;2023-02-22T07:50:37;56.67;;;17.90;;
66189;SDS011;52992;52.084;5.412;2023-02-22T07:53:06;52.27;;;17.97;;
66189;SDS011;52992;52.084;5.412;2023-02-22T07:55:36;55.00;;;18.97;;
66189;SDS011;52992;52.084;5.412;2023-02-22T07:58:04;55.60;;;17.90;;
66189;SDS011;52992;52.084;5.412;2023-02-22T08:00:36;53.73;;;19.47;;
66189;SDS011;52992;52.084;5.412;2023-02-22T08:03:05;52.47;;;18.27;;
66189;SDS011;52992;52.084;5.412;2023-02-22T08:05:34;47.13;;;18.00;;
66189;SDS011;52992;52.084;5.412;2023-02-22T08:08:02;49.80;;;17.73;;
66189;SDS011;52992;52.084;5.412;2023-02-22T08:10:31;45.17;;;16.10;;
66189;SDS011;52992;52.084;5.412;2023-02-22T08:13:00;52.50;;;17.63;;
66189;SDS011;52992;52.084;5.412;2023-02-22T08:15:29;51.57;;;17.53;;
66189;SDS011;52992;52.084;5.412;2023-02-22T08:17:58;41.73;;;16.60;;
66189;SDS011;52992;52.084;5.412;2023-02-22T08:20:27;46.60;;;15.67;;
66189;SDS011;52992;52.084;5.412;2023-02-22T08:22:55;40.73;;;15.90;;
66189;SDS011;52992;52.084;5.412;2023-02-22T08:25:24;41.73;;;16.23;;
66189;SDS011;52992;52.084;5.412;2023-02-22T08:27:55;47.73;;;16.93;;
66189;SDS011;52992;52.084;5.412;2023-02-22T08:30:28;45.37;;;16.60;;
66189;SDS011;52992;52.084;5.412;2023-02-22T08:32:56;41.23;;;16.73;;
66189;SDS011;52992;52.084;5.412;2023-02-22T08:35:24;36.50;;;14.90;;
66189;SDS011;52992;52.084;5.412;2023-02-22T08:37:53;39.13;;;15.40;;
66189;SDS011;52992;52.084;5.412;2023-02-22T08:40:23;41.03;;;16.00;;
66189;SDS011;52992;52.084;5.412;2023-02-22T08:42:51;43.73;;;15.50;;
66189;SDS011;52992;52.084;5.412;2023-02-22T08:45:18;44.37;;;15.83;;
66189;SDS011;52992;52.084;5.412;2023-02-22T08:47:45;40.67;;;15.00;;
66189;SDS011;52992;52.084;5.412;2023-02-22T08:50:20;38.73;;;15.10;;
66189;SDS011;52992;52.084;5.412;2023-02-22T08:52:52;36.67;;;15.90;;
66189;SDS011;52992;52.084;5.412;2023-02-22T08:55:22;36.87;;;14.83;;
66189;SDS011;52992;52.084;5.412;2023-02-22T08:57:50;45.30;;;15.83;;
66189;SDS011;52992;52.084;5.412;2023-02-22T09:00:18;40.40;;;14.70;;
66189;SDS011;52992;52.084;5.412;2023-02-22T09:02:45;36.63;;;14.40;;
66189;SDS011;52992;52.084;5.412;2023-02-22T09:05:12;38.70;;;15.20;;
66189;SDS011;52992;52.084;5.412;2023-02-22T09:07:39;40.90;;;16.03;;
66189;SDS011;52992;52.084;5.412;2023-02-22T09:10:12;35.37;;;14.83;;
66189;SDS011;52992;52.084;5.412;2023-02-22T09:12:41;39.10;;;15.57;;
66189;SDS011;52992;52.084;5.412;2023-02-22T09:15:08;41.97;;;16.53;;
66189;SDS011;52992;52.084;5.412;2023-02-22T09:17:36;42.53;;;15.53;;
66189;SDS011;52992;52.084;5.412;2023-02-22T09:20:03;35.70;;;15.23;;
66189;SDS011;52992;52.084;5.412;2023-02-22T09:22:32;48.57;;;16.53;;
66189;SDS011;52992;52.084;5.412;2023-02-22T09:24:59;39.97;;;16.13;;
66189;SDS011;52992;52.084;5.412;2023-02-22T09:27:41;36.00;;;15.57;;
66189;SDS011;52992;52.084;5.412;2023-02-22T09:30:14;40.37;;;15.17;;
66189;SDS011;52992;52.084;5.412;2023-02-22T09:32:59;37.53;;;15.03;;
66189;SDS011;52992;52.084;5.412;2023-02-22T09:35:38;36.87;;;14.57;;
66189;SDS011;52992;52.084;5.412;2023-02-22T09:38:12;38.43;;;15.40;;
66189;SDS011;52992;52.084;5.412;2023-02-22T09:40:49;41.30;;;15.87;;
66189;SDS011;52992;52.084;5.412;2023-02-22T09:43:40;38.70;;;15.60;;
66189;SDS011;52992;52.084;5.412;2023-02-22T09:49:15;41.47;;;15.17;;
66189;SDS011;52992;52.084;5.412;2023-02-22T09:54:25;39.80;;;15.77;;
66189;SDS011;52992;52.084;5.412;2023-02-22T09:57:02;39.73;;;15.57;;
66189;SDS011;52992;52.084;5.412;2023-02-22T09:59:36;34.77;;;15.53;;
66189;SDS011;52992;52.084;5.412;2023-02-22T10:02:16;33.60;;;14.30;;
66189;SDS011;52992;52.084;5.412;2023-02-22T10:05:11;36.90;;;14.73;;
66189;SDS011;52992;52.084;5.412;2023-02-22T10:07:57;37.90;;;14.17;;
66189;SDS011;52992;52.084;5.412;2023-02-22T10:10:32;38.30;;;15.07;;
66189;SDS011;52992;52.084;5.412;2023-02-22T10:13:10;35.67;;;14.97;;
66189;SDS011;52992;52.084;5.412;2023-02-22T10:16:01;33.70;;;13.43;;
66189;SDS011;52992;52.084;5.412;2023-02-22T10:24:30;34.20;;;13.97;;
66189;SDS011;52992;52.084;5.412;2023-02-22T10:27:18;33.37;;;14.07;;
66189;SDS011;52992;52.084;5.412;2023-02-22T10:30:20;38.07;;;15.23;;
66189;SDS011;52992;52.084;5.412;2023-02-22T10:33:06;32.50;;;14.70;;
66189;SDS011;52992;52.084;5.412;2023-02-22T10:35:40;32.93;;;15.37;;
66189;SDS011;52992;52.084;5.412;2023-02-22T10:40:56;34.47;;;14.67;;
66189;SDS011;52992;52.084;5.412;2023-02-22T10:43:38;37.77;;;14.60;;
66189;SDS011;52992;52.084;5.412;2023-02-22T10:46:07;33.97;;;14.03;;
66189;SDS011;52992;52.084;5.412;2023-02-22T10:48:39;33.50;;;13.50;;
66189;SDS011;52992;52.084;5.412;2023-02-22T10:51:08;35.53;;;14.43;;
66189;SDS011;52992;52.084;5.412;2023-02-22T10:53:36;33.03;;;14.03;;
66189;SDS011;52992;52.084;5.412;2023-02-22T10:56:13;31.30;;;12.87;;
66189;SDS011;52992;52.084;5.412;2023-02-22T10:59:01;34.10;;;14.40;;
66189;SDS011;52992;52.084;5.412;2023-02-22T11:04:02;35.03;;;14.93;;
66189;SDS011;52992;52.084;5.412;2023-02-22T11:06:31;34.83;;;14.83;;
66189;SDS011;52992;52.084;5.412;2023-02-22T11:09:03;37.77;;;15.13;;
66189;SDS011;52992;52.084;5.412;2023-02-22T11:11:42;37.33;;;15.57;;
66189;SDS011;52992;52.084;5.412;2023-02-22T11:14:11;30.33;;;12.70;;
66189;SDS011;52992;52.084;5.412;2023-02-22T11:16:51;37.73;;;14.60;;
66189;SDS011;52992;52.084;5.412;2023-02-22T11:19:28;37.13;;;14.00;;
66189;SDS011;52992;52.084;5.412;2023-02-22T11:21:58;33.30;;;14.17;;
66189;SDS011;52992;52.084;5.412;2023-02-22T11:24:43;35.60;;;13.80;;
66189;SDS011;52992;52.084;5.412;2023-02-22T11:33:25;42.07;;;14.90;;
66189;SDS011;52992;52.084;5.412;2023-02-22T11:38:34;38.83;;;14.63;;
66189;SDS011;52992;52.084;5.412;2023-02-22T11:43:52;43.30;;;17.33;;
66189;SDS011;52992;52.084;5.412;2023-02-22T11:46:23;41.63;;;16.93;;
66189;SDS011;52992;52.084;5.412;2023-02-22T11:51:32;36.17;;;14.53;;
66189;SDS011;52992;52.084;5.412;2023-02-22T12:00:13;37.63;;;15.10;;
66189;SDS011;52992;52.084;5.412;2023-02-22T12:06:24;33.23;;;13.40;;
66189;SDS011;52992;52.084;5.412;2023-02-22T12:14:15;33.07;;;13.87;;
66189;SDS011;52992;52.084;5.412;2023-02-22T12:17:01;40.80;;;16.23;;
66189;SDS011;52992;52.084;5.412;2023-02-22T12:22:36;39.77;;;16.63;;
66189;SDS011;52992;52.084;5.412;2023-02-22T12:25:16;39.63;;;16.80;;
66189;SDS011;52992;52.084;5.412;2023-02-22T12:30:55;36.73;;;15.17;;
66189;SDS011;52992;52.084;5.412;2023-02-22T12:36:49;36.33;;;15.57;;
66189;SDS011;52992;52.084;5.412;2023-02-22T12:39:24;40.87;;;15.60;;
66189;SDS011;52992;52.084;5.412;2023-02-22T12:45:16;37.37;;;14.87;;
66189;SDS011;52992;52.084;5.412;2023-02-22T12:48:08;38.87;;;14.13;;
66189;SDS011;52992;52.084;5.412;2023-02-22T12:50:53;39.90;;;15.37;;
66189;SDS011;52992;52.084;5.412;2023-02-22T12:53:28;33.13;;;15.80;;
66189;SDS011;52992;52.084;5.412;2023-02-22T12:55:59;35.13;;;14.87;;
66189;SDS011;52992;52.084;5.412;2023-02-22T12:58:54;31.40;;;13.83;;
66189;SDS011;52992;52.084;5.412;2023-02-22T13:01:31;31.90;;;13.47;;
66189;SDS011;52992;52.084;5.412;2023-02-22T13:04:03;32.43;;;15.13;;
66189;SDS011;52992;52.084;5.412;2023-02-22T13:06:51;30.80;;;15.10;;
66189;SDS011;52992;52.084;5.412;2023-02-22T13:19:02;32.73;;;14.27;;
66189;SDS011;52992;52.084;5.412;2023-02-22T13:21:44;30.77;;;14.10;;
66189;SDS011;52992;52.084;5.412;2023-02-22T13:24:22;30.33;;;13.60;;
66189;SDS011;52992;52.084;5.412;2023-02-22T13:27:10;29.53;;;13.53;;
66189;SDS011;52992;52.084;5.412;2023-02-22T13:29:43;36.73;;;17.20;;
66189;SDS011;52992;52.084;5.412;2023-02-22T13:32:29;35.93;;;16.37;;
66189;SDS011;52992;52.084;5.412;2023-02-22T13:37:55;32.43;;;15.30;;
66189;SDS011;52992;52.084;5.412;2023-02-22T13:43:23;32.63;;;14.80;;
66189;SDS011;52992;52.084;5.412;2023-02-22T13:51:42;28.23;;;13.87;;
66189;SDS011;52992;52.084;5.412;2023-02-22T13:56:50;27.63;;;13.40;;
66189;SDS011;52992;52.084;5.412;2023-02-22T13:59:23;25.20;;;13.50;;
66189;SDS011;52992;52.084;5.412;2023-02-22T14:02:02;26.43;;;12.70;;
66189;SDS011;52992;52.084;5.412;2023-02-22T14:04:35;28.13;;;14.20;;
66189;SDS011;52992;52.084;5.412;2023-02-22T14:07:44;31.63;;;15.60;;
66189;SDS011;52992;52.084;5.412;2023-02-22T14:09:57;26.97;;;13.87;;
66189;SDS011;52992;52.084;5.412;2023-02-22T14:15:30;30.20;;;13.87;;
66189;SDS011;52992;52.084;5.412;2023-02-22T14:20:26;29.67;;;13.47;;
66189;SDS011;52992;52.084;5.412;2023-02-22T14:22:57;29.67;;;13.87;;
66189;SDS011;52992;52.084;5.412;2023-02-22T14:25:54;28.27;;;13.67;;
66189;SDS011;52992;52.084;5.412;2023-02-22T14:28:50;31.10;;;13.63;;
66189;SDS011;52992;52.084;5.412;2023-02-22T14:42:05;29.27;;;15.40;;
66189;SDS011;52992;52.084;5.412;2023-02-22T14:47:27;26.40;;;13.57;;
66189;SDS011;52992;52.084;5.412;2023-02-22T14:50:06;29.20;;;14.13;;
66189;SDS011;52992;52.084;5.412;2023-02-22T14:52:43;28.00;;;12.83;;
66189;SDS011;52992;52.084;5.412;2023-02-22T14:55:19;26.43;;;13.60;;
66189;SDS011;52992;52.084;5.412;2023-02-22T15:00:45;23.93;;;13.20;;
66189;SDS011;52992;52.084;5.412;2023-02-22T15:03:23;23.53;;;12.27;;
66189;SDS011;52992;52.084;5.412;2023-02-22T15:05:54;22.87;;;13.37;;
66189;SDS011;52992;52.084;5.412;2023-02-22T15:08:24;25.00;;;12.63;;
66189;SDS011;52992;52.084;5.412;2023-02-22T15:10:53;25.40;;;13.20;;
66189;SDS011;52992;52.084;5.412;2023-02-22T15:15:59;27.43;;;14.23;;
66189;SDS011;52992;52.084;5.412;2023-02-22T15:23:38;27.27;;;12.90;;
66189;SDS011;52992;52.084;5.412;2023-02-22T15:26:15;28.03;;;14.77;;
66189;SDS011;52992;52.084;5.412;2023-02-22T15:28:43;26.00;;;13.17;;
66189;SDS011;52992;52.084;5.412;2023-02-22T15:31:14;27.33;;;13.83;;
66189;SDS011;52992;52.084;5.412;2023-02-22T15:33:51;25.23;;;13.73;;
66189;SDS011;52992;52.084;5.412;2023-02-22T15:36:19;27.17;;;14.27;;
66189;SDS011;52992;52.084;5.412;2023-02-22T15:38:51;25.10;;;13.93;;
66189;SDS011;52992;52.084;5.412;2023-02-22T15:41:29;24.70;;;14.03;;
66189;SDS011;52992;52.084;5.412;2023-02-22T15:43:58;22.50;;;13.47;;
66189;SDS011;52992;52.084;5.412;2023-02-22T15:46:33;26.03;;;14.30;;
66189;SDS011;52992;52.084;5.412;2023-02-22T15:51:44;24.33;;;13.70;;
66189;SDS011;52992;52.084;5.412;2023-02-22T15:54:14;23.87;;;13.50;;
66189;SDS011;52992;52.084;5.412;2023-02-22T15:56:52;26.00;;;13.70;;
66189;SDS011;52992;52.084;5.412;2023-02-22T15:59:23;22.47;;;14.20;;
66189;SDS011;52992;52.084;5.412;2023-02-22T16:01:55;26.63;;;13.97;;
66189;SDS011;52992;52.084;5.412;2023-02-22T16:04:26;27.50;;;14.90;;
66189;SDS011;52992;52.084;5.412;2023-02-22T16:07:02;30.57;;;14.27;;
66189;SDS011;52992;52.084;5.412;2023-02-22T16:09:33;29.63;;;15.70;;
66189;SDS011;52992;52.084;5.412;2023-02-22T16:14:56;27.40;;;15.60;;
66189;SDS011;52992;52.084;5.412;2023-02-22T16:20:27;23.03;;;13.67;;
66189;SDS011;52992;52.084;5.412;2023-02-22T16:22:50;28.30;;;15.30;;
66189;SDS011;52992;52.084;5.412;2023-02-22T16:27:53;26.17;;;15.67;;
66189;SDS011;52992;52.084;5.412;2023-02-22T16:30:29;28.60;;;14.80;;
66189;SDS011;52992;52.084;5.412;2023-02-22T16:33:04;27.27;;;15.63;;
66189;SDS011;52992;52.084;5.412;2023-02-22T16:35:38;29.83;;;15.77;;
66189;SDS011;52992;52.084;5.412;2023-02-22T16:38:06;27.93;;;15.57;;
66189;SDS011;52992;52.084;5.412;2023-02-22T16:40:52;29.07;;;15.43;;
66189;SDS011;52992;52.084;5.412;2023-02-22T16:43:21;27.50;;;16.07;;
66189;SDS011;52992;52.084;5.412;2023-02-22T16:46:00;29.47;;;16.43;;
66189;SDS011;52992;52.084;5.412;2023-02-22T16:48:29;35.27;;;18.27;;
66189;SDS011;52992;52.084;5.412;2023-02-22T16:51:14;29.50;;;16.43;;
66189;SDS011;52992;52.084;5.412;2023-02-22T16:53:44;31.03;;;16.77;;
66189;SDS011;52992;52.084;5.412;2023-02-22T16:56:12;29.77;;;17.03;;
66189;SDS011;52992;52.084;5.412;2023-02-22T16:58:41;31.33;;;18.60;;
66189;SDS011;52992;52.084;5.412;2023-02-22T17:01:09;40.90;;;19.73;;
66189;SDS011;52992;52.084;5.412;2023-02-22T17:03:38;31.97;;;17.90;;
66189;SDS011;52992;52.084;5.412;2023-02-22T17:06:04;31.53;;;17.37;;
66189;SDS011;52992;52.084;5.412;2023-02-22T17:08:31;29.13;;;16.97;;
66189;SDS011;52992;52.084;5.412;2023-02-22T17:10:58;32.77;;;18.17;;
66189;SDS011;52992;52.084;5.412;2023-02-22T17:13:26;30.53;;;16.90;;
66189;SDS011;52992;52.084;5.412;2023-02-22T17:15:55;34.10;;;17.63;;
66189;SDS011;52992;52.084;5.412;2023-02-22T17:18:23;35.23;;;19.83;;
66189;SDS011;52992;52.084;5.412;2023-02-22T17:20:54;32.50;;;19.53;;